sensor_id;sensor_type;location;lat;lon;timestamp;P1;durP1;ratioP1;P2;durP2;ratioP2
25988;SDS011;13778;48.236;9.894;2022-12-20T00:01:55;36.33;;;21.35;;
25988;SDS011;13778;48.236;9.894;2022-12-20T00:04:45;39.70;;;22.27;;
25988;SDS011;13778;48.236;9.894;2022-12-20T00:07:36;35.67;;;21.23;;
25988;SDS011;13778;48.236;9.894;2022-12-20T00:10:28;40.58;;;23.23;;
25988;SDS011;13778;48.236;9.894;2022-12-20T00:13:18;37.80;;;22.30;;
25988;SDS011;13778;48.236;9.894;2022-12-20T00:16:09;36.90;;;23.08;;
25988;SDS011;13778;48.236;9.894;2022-12-20T00:19:01;36.45;;;21.30;;
25988;SDS011;13778;48.236;9.894;2022-12-20T00:21:51;44.67;;;23.17;;
25988;SDS011;13778;48.236;9.894;2022-12-20T00:24:42;36.42;;;21.48;;
25988;SDS011;13778;48.236;9.894;2022-12-20T00:27:34;43.28;;;22.48;;
25988;SDS011;13778;48.236;9.894;2022-12-20T00:30:24;41.00;;;23.17;;
25988;SDS011;13778;48.236;9.894;2022-12-20T00:33:15;35.30;;;20.85;;
25988;SDS011;13778;48.236;9.894;2022-12-20T00:36:06;38.30;;;21.92;;
25988;SDS011;13778;48.236;9.894;2022-12-20T00:38:57;35.95;;;21.25;;
25988;SDS011;13778;48.236;9.894;2022-12-20T00:41:48;40.80;;;21.03;;
25988;SDS011;13778;48.236;9.894;2022-12-20T00:44:40;34.45;;;21.35;;
25988;SDS011;13778;48.236;9.894;2022-12-20T00:47:30;34.25;;;20.95;;
25988;SDS011;13778;48.236;9.894;2022-12-20T00:50:21;36.35;;;21.60;;
25988;SDS011;13778;48.236;9.894;2022-12-20T00:53:12;39.33;;;21.30;;
25988;SDS011;13778;48.236;9.894;2022-12-20T00:56:02;45.00;;;23.70;;
25988;SDS011;13778;48.236;9.894;2022-12-20T00:58:53;38.28;;;22.98;;
25988;SDS011;13778;48.236;9.894;2022-12-20T01:01:45;40.42;;;22.77;;
25988;SDS011;13778;48.236;9.894;2022-12-20T01:04:36;37.05;;;22.67;;
25988;SDS011;13778;48.236;9.894;2022-12-20T01:07:26;42.78;;;22.83;;
25988;SDS011;13778;48.236;9.894;2022-12-20T01:10:17;44.95;;;23.33;;
25988;SDS011;13778;48.236;9.894;2022-12-20T01:13:07;43.78;;;23.25;;
25988;SDS011;13778;48.236;9.894;2022-12-20T01:16:02;45.25;;;24.10;;
25988;SDS011;13778;48.236;9.894;2022-12-20T01:18:54;45.53;;;24.67;;
25988;SDS011;13778;48.236;9.894;2022-12-20T01:21:45;39.70;;;22.30;;
25988;SDS011;13778;48.236;9.894;2022-12-20T01:24:35;47.95;;;24.83;;
25988;SDS011;13778;48.236;9.894;2022-12-20T01:27:26;47.60;;;23.25;;
25988;SDS011;13778;48.236;9.894;2022-12-20T01:30:17;39.30;;;22.02;;
25988;SDS011;13778;48.236;9.894;2022-12-20T01:33:07;39.95;;;22.15;;
25988;SDS011;13778;48.236;9.894;2022-12-20T01:36:00;44.53;;;22.98;;
25988;SDS011;13778;48.236;9.894;2022-12-20T01:38:54;39.55;;;21.27;;
25988;SDS011;13778;48.236;9.894;2022-12-20T01:41:45;37.70;;;19.55;;
25988;SDS011;13778;48.236;9.894;2022-12-20T01:44:54;39.80;;;22.02;;
25988;SDS011;13778;48.236;9.894;2022-12-20T01:47:44;43.63;;;21.98;;
25988;SDS011;13778;48.236;9.894;2022-12-20T01:50:35;39.67;;;21.87;;
25988;SDS011;13778;48.236;9.894;2022-12-20T01:53:27;38.35;;;20.92;;
25988;SDS011;13778;48.236;9.894;2022-12-20T01:56:18;43.25;;;22.58;;
25988;SDS011;13778;48.236;9.894;2022-12-20T01:59:09;39.92;;;21.95;;
25988;SDS011;13778;48.236;9.894;2022-12-20T02:02:00;35.10;;;20.97;;
25988;SDS011;13778;48.236;9.894;2022-12-20T02:04:51;35.95;;;21.25;;
25988;SDS011;13778;48.236;9.894;2022-12-20T02:07:41;40.42;;;22.73;;
25988;SDS011;13778;48.236;9.894;2022-12-20T02:10:38;44.63;;;23.10;;
25988;SDS011;13778;48.236;9.894;2022-12-20T02:13:34;38.45;;;21.98;;
25988;SDS011;13778;48.236;9.894;2022-12-20T02:16:29;37.47;;;20.33;;
25988;SDS011;13778;48.236;9.894;2022-12-20T02:22:28;39.53;;;21.17;;
25988;SDS011;13778;48.236;9.894;2022-12-20T02:25:43;43.85;;;23.02;;
25988;SDS011;13778;48.236;9.894;2022-12-20T02:28:40;37.13;;;21.17;;
25988;SDS011;13778;48.236;9.894;2022-12-20T02:31:38;44.17;;;23.15;;
25988;SDS011;13778;48.236;9.894;2022-12-20T02:34:30;43.10;;;22.77;;
25988;SDS011;13778;48.236;9.894;2022-12-20T02:37:22;36.80;;;21.27;;
25988;SDS011;13778;48.236;9.894;2022-12-20T02:40:12;41.80;;;22.45;;
25988;SDS011;13778;48.236;9.894;2022-12-20T02:43:04;38.35;;;21.75;;
25988;SDS011;13778;48.236;9.894;2022-12-20T02:46:16;40.95;;;22.75;;
25988;SDS011;13778;48.236;9.894;2022-12-20T02:49:09;49.17;;;22.92;;
25988;SDS011;13778;48.236;9.894;2022-12-20T02:52:01;39.78;;;21.75;;
25988;SDS011;13778;48.236;9.894;2022-12-20T02:54:52;34.20;;;20.63;;
25988;SDS011;13778;48.236;9.894;2022-12-20T02:57:45;40.53;;;20.40;;
25988;SDS011;13778;48.236;9.894;2022-12-20T03:00:39;38.08;;;22.00;;
25988;SDS011;13778;48.236;9.894;2022-12-20T03:03:31;38.42;;;22.20;;
25988;SDS011;13778;48.236;9.894;2022-12-20T03:06:23;38.75;;;21.58;;
25988;SDS011;13778;48.236;9.894;2022-12-20T03:09:14;40.97;;;21.58;;
25988;SDS011;13778;48.236;9.894;2022-12-20T03:12:05;38.33;;;22.30;;
25988;SDS011;13778;48.236;9.894;2022-12-20T03:14:55;44.88;;;23.52;;
25988;SDS011;13778;48.236;9.894;2022-12-20T03:17:45;41.42;;;22.55;;
25988;SDS011;13778;48.236;9.894;2022-12-20T03:20:36;40.83;;;23.00;;
25988;SDS011;13778;48.236;9.894;2022-12-20T03:23:28;42.15;;;22.40;;
25988;SDS011;13778;48.236;9.894;2022-12-20T03:26:19;39.70;;;20.65;;
25988;SDS011;13778;48.236;9.894;2022-12-20T03:29:09;41.50;;;21.45;;
25988;SDS011;13778;48.236;9.894;2022-12-20T03:32:00;41.20;;;23.40;;
25988;SDS011;13778;48.236;9.894;2022-12-20T03:34:50;40.97;;;22.38;;
25988;SDS011;13778;48.236;9.894;2022-12-20T03:37:41;42.60;;;22.15;;
25988;SDS011;13778;48.236;9.894;2022-12-20T03:40:33;43.13;;;23.20;;
25988;SDS011;13778;48.236;9.894;2022-12-20T03:43:23;45.20;;;23.33;;
25988;SDS011;13778;48.236;9.894;2022-12-20T03:46:14;43.03;;;22.65;;
25988;SDS011;13778;48.236;9.894;2022-12-20T03:49:04;39.85;;;21.20;;
25988;SDS011;13778;48.236;9.894;2022-12-20T03:51:55;37.45;;;20.67;;
25988;SDS011;13778;48.236;9.894;2022-12-20T03:54:45;43.60;;;22.77;;
25988;SDS011;13778;48.236;9.894;2022-12-20T03:57:37;41.63;;;22.45;;
25988;SDS011;13778;48.236;9.894;2022-12-20T04:03:17;40.20;;;20.90;;
25988;SDS011;13778;48.236;9.894;2022-12-20T04:06:08;41.22;;;23.55;;
25988;SDS011;13778;48.236;9.894;2022-12-20T04:08:58;50.13;;;23.17;;
25988;SDS011;13778;48.236;9.894;2022-12-20T04:11:49;42.08;;;22.35;;
25988;SDS011;13778;48.236;9.894;2022-12-20T04:14:41;41.13;;;22.08;;
25988;SDS011;13778;48.236;9.894;2022-12-20T04:17:31;35.05;;;19.98;;
25988;SDS011;13778;48.236;9.894;2022-12-20T04:20:22;38.50;;;20.77;;
25988;SDS011;13778;48.236;9.894;2022-12-20T04:23:12;37.65;;;22.17;;
25988;SDS011;13778;48.236;9.894;2022-12-20T04:26:04;34.13;;;20.23;;
25988;SDS011;13778;48.236;9.894;2022-12-20T04:31:46;37.22;;;20.30;;
25988;SDS011;13778;48.236;9.894;2022-12-20T04:37:26;40.63;;;21.42;;
25988;SDS011;13778;48.236;9.894;2022-12-20T04:40:17;40.42;;;21.40;;
25988;SDS011;13778;48.236;9.894;2022-12-20T04:43:07;36.55;;;19.67;;
25988;SDS011;13778;48.236;9.894;2022-12-20T04:45:58;38.95;;;21.23;;
25988;SDS011;13778;48.236;9.894;2022-12-20T04:48:50;37.10;;;21.92;;
25988;SDS011;13778;48.236;9.894;2022-12-20T04:54:30;40.10;;;20.40;;
25988;SDS011;13778;48.236;9.894;2022-12-20T04:57:19;41.35;;;20.90;;
25988;SDS011;13778;48.236;9.894;2022-12-20T05:00:10;39.03;;;18.83;;
25988;SDS011;13778;48.236;9.894;2022-12-20T05:03:03;37.30;;;19.70;;
25988;SDS011;13778;48.236;9.894;2022-12-20T05:05:55;38.92;;;21.67;;
25988;SDS011;13778;48.236;9.894;2022-12-20T05:08:46;36.83;;;20.23;;
25988;SDS011;13778;48.236;9.894;2022-12-20T05:11:36;35.58;;;19.83;;
25988;SDS011;13778;48.236;9.894;2022-12-20T05:14:27;36.60;;;19.67;;
25988;SDS011;13778;48.236;9.894;2022-12-20T05:17:17;35.83;;;19.77;;
25988;SDS011;13778;48.236;9.894;2022-12-20T05:20:08;33.55;;;19.40;;
25988;SDS011;13778;48.236;9.894;2022-12-20T05:23:00;38.95;;;20.23;;
25988;SDS011;13778;48.236;9.894;2022-12-20T05:26:08;31.90;;;19.00;;
25988;SDS011;13778;48.236;9.894;2022-12-20T05:29:07;38.30;;;19.65;;
25988;SDS011;13778;48.236;9.894;2022-12-20T05:31:58;34.97;;;19.55;;
25988;SDS011;13778;48.236;9.894;2022-12-20T05:34:48;34.88;;;20.27;;
25988;SDS011;13778;48.236;9.894;2022-12-20T05:37:39;33.30;;;19.15;;
25988;SDS011;13778;48.236;9.894;2022-12-20T05:40:31;37.35;;;18.88;;
25988;SDS011;13778;48.236;9.894;2022-12-20T05:46:11;33.08;;;19.52;;
25988;SDS011;13778;48.236;9.894;2022-12-20T05:49:02;36.03;;;19.05;;
25988;SDS011;13778;48.236;9.894;2022-12-20T05:51:52;35.60;;;19.38;;
25988;SDS011;13778;48.236;9.894;2022-12-20T05:54:43;35.55;;;19.08;;
25988;SDS011;13778;48.236;9.894;2022-12-20T05:57:35;37.85;;;18.80;;
25988;SDS011;13778;48.236;9.894;2022-12-20T06:00:25;35.97;;;20.60;;
25988;SDS011;13778;48.236;9.894;2022-12-20T06:03:16;35.83;;;19.58;;
25988;SDS011;13778;48.236;9.894;2022-12-20T06:06:07;39.78;;;20.55;;
25988;SDS011;13778;48.236;9.894;2022-12-20T06:08:57;35.65;;;18.90;;
25988;SDS011;13778;48.236;9.894;2022-12-20T06:11:48;36.67;;;19.60;;
25988;SDS011;13778;48.236;9.894;2022-12-20T06:14:40;32.55;;;19.23;;
25988;SDS011;13778;48.236;9.894;2022-12-20T06:17:31;31.70;;;19.33;;
25988;SDS011;13778;48.236;9.894;2022-12-20T06:20:21;36.85;;;19.88;;
25988;SDS011;13778;48.236;9.894;2022-12-20T06:23:12;38.90;;;21.42;;
25988;SDS011;13778;48.236;9.894;2022-12-20T06:26:03;36.03;;;19.38;;
25988;SDS011;13778;48.236;9.894;2022-12-20T06:28:57;36.83;;;20.83;;
25988;SDS011;13778;48.236;9.894;2022-12-20T06:31:51;33.33;;;18.55;;
25988;SDS011;13778;48.236;9.894;2022-12-20T06:34:42;37.08;;;19.67;;
25988;SDS011;13778;48.236;9.894;2022-12-20T06:37:32;29.88;;;17.58;;
25988;SDS011;13778;48.236;9.894;2022-12-20T06:40:23;36.15;;;20.30;;
25988;SDS011;13778;48.236;9.894;2022-12-20T06:43:13;38.28;;;19.38;;
25988;SDS011;13778;48.236;9.894;2022-12-20T06:46:04;37.78;;;18.92;;
25988;SDS011;13778;48.236;9.894;2022-12-20T06:48:56;34.13;;;19.55;;
25988;SDS011;13778;48.236;9.894;2022-12-20T06:51:46;36.35;;;19.42;;
25988;SDS011;13778;48.236;9.894;2022-12-20T06:54:37;36.45;;;20.23;;
25988;SDS011;13778;48.236;9.894;2022-12-20T06:57:27;39.03;;;21.38;;
25988;SDS011;13778;48.236;9.894;2022-12-20T07:00:18;35.45;;;20.88;;
25988;SDS011;13778;48.236;9.894;2022-12-20T07:03:09;36.38;;;19.83;;
25988;SDS011;13778;48.236;9.894;2022-12-20T07:06:01;41.33;;;21.52;;
25988;SDS011;13778;48.236;9.894;2022-12-20T07:11:41;37.08;;;20.02;;
25988;SDS011;13778;48.236;9.894;2022-12-20T07:14:32;38.47;;;23.35;;
25988;SDS011;13778;48.236;9.894;2022-12-20T07:17:23;39.20;;;22.42;;
25988;SDS011;13778;48.236;9.894;2022-12-20T07:20:13;36.47;;;20.02;;
25988;SDS011;13778;48.236;9.894;2022-12-20T07:23:06;31.75;;;18.85;;
25988;SDS011;13778;48.236;9.894;2022-12-20T07:28:46;30.80;;;17.00;;
25988;SDS011;13778;48.236;9.894;2022-12-20T07:31:36;36.42;;;19.08;;
25988;SDS011;13778;48.236;9.894;2022-12-20T07:34:27;31.65;;;18.08;;
25988;SDS011;13778;48.236;9.894;2022-12-20T07:37:17;30.67;;;18.02;;
25988;SDS011;13778;48.236;9.894;2022-12-20T07:40:10;31.13;;;17.88;;
25988;SDS011;13778;48.236;9.894;2022-12-20T07:43:01;32.78;;;18.38;;
25988;SDS011;13778;48.236;9.894;2022-12-20T07:45:53;31.98;;;18.48;;
25988;SDS011;13778;48.236;9.894;2022-12-20T07:48:43;32.70;;;19.35;;
25988;SDS011;13778;48.236;9.894;2022-12-20T07:51:35;32.70;;;18.30;;
25988;SDS011;13778;48.236;9.894;2022-12-20T07:57:19;29.17;;;19.77;;
25988;SDS011;13778;48.236;9.894;2022-12-20T08:00:11;34.80;;;19.65;;
25988;SDS011;13778;48.236;9.894;2022-12-20T08:03:03;29.98;;;18.77;;
25988;SDS011;13778;48.236;9.894;2022-12-20T08:05:54;36.15;;;19.83;;
25988;SDS011;13778;48.236;9.894;2022-12-20T08:08:48;34.65;;;19.40;;
25988;SDS011;13778;48.236;9.894;2022-12-20T08:11:40;33.70;;;19.40;;
25988;SDS011;13778;48.236;9.894;2022-12-20T08:14:34;33.28;;;18.73;;
25988;SDS011;13778;48.236;9.894;2022-12-20T08:17:24;34.53;;;21.60;;
25988;SDS011;13778;48.236;9.894;2022-12-20T08:20:15;36.78;;;21.02;;
25988;SDS011;13778;48.236;9.894;2022-12-20T08:23:05;37.17;;;21.30;;
25988;SDS011;13778;48.236;9.894;2022-12-20T08:25:56;35.40;;;20.63;;
25988;SDS011;13778;48.236;9.894;2022-12-20T08:28:49;34.60;;;21.02;;
25988;SDS011;13778;48.236;9.894;2022-12-20T08:31:41;40.30;;;22.20;;
25988;SDS011;13778;48.236;9.894;2022-12-20T08:34:32;36.90;;;21.50;;
25988;SDS011;13778;48.236;9.894;2022-12-20T08:37:22;39.28;;;22.08;;
25988;SDS011;13778;48.236;9.894;2022-12-20T08:40:13;35.75;;;21.35;;
25988;SDS011;13778;48.236;9.894;2022-12-20T08:43:03;38.20;;;21.70;;
25988;SDS011;13778;48.236;9.894;2022-12-20T08:45:54;39.30;;;23.50;;
25988;SDS011;13778;48.236;9.894;2022-12-20T08:48:46;36.72;;;22.27;;
25988;SDS011;13778;48.236;9.894;2022-12-20T08:54:26;39.65;;;22.17;;
25988;SDS011;13778;48.236;9.894;2022-12-20T08:57:16;40.10;;;24.42;;
25988;SDS011;13778;48.236;9.894;2022-12-20T09:00:07;37.30;;;22.40;;
25988;SDS011;13778;48.236;9.894;2022-12-20T09:02:58;38.25;;;22.35;;
25988;SDS011;13778;48.236;9.894;2022-12-20T09:05:50;36.67;;;21.27;;
25988;SDS011;13778;48.236;9.894;2022-12-20T09:11:30;38.53;;;22.90;;
25988;SDS011;13778;48.236;9.894;2022-12-20T09:14:21;37.33;;;21.55;;
25988;SDS011;13778;48.236;9.894;2022-12-20T09:17:12;41.50;;;24.05;;
25988;SDS011;13778;48.236;9.894;2022-12-20T09:20:03;36.40;;;21.83;;
25988;SDS011;13778;48.236;9.894;2022-12-20T09:22:56;38.38;;;22.75;;
25988;SDS011;13778;48.236;9.894;2022-12-20T09:25:47;46.38;;;25.90;;
25988;SDS011;13778;48.236;9.894;2022-12-20T09:28:38;46.30;;;24.55;;
25988;SDS011;13778;48.236;9.894;2022-12-20T09:31:28;51.88;;;27.27;;
25988;SDS011;13778;48.236;9.894;2022-12-20T09:34:19;57.15;;;28.63;;
25988;SDS011;13778;48.236;9.894;2022-12-20T09:37:09;56.53;;;27.92;;
25988;SDS011;13778;48.236;9.894;2022-12-20T09:40:01;49.70;;;27.20;;
25988;SDS011;13778;48.236;9.894;2022-12-20T09:42:52;43.00;;;25.52;;
25988;SDS011;13778;48.236;9.894;2022-12-20T09:45:42;44.90;;;23.42;;
25988;SDS011;13778;48.236;9.894;2022-12-20T09:48:34;43.10;;;23.48;;
25988;SDS011;13778;48.236;9.894;2022-12-20T09:54:35;43.40;;;23.27;;
25988;SDS011;13778;48.236;9.894;2022-12-20T09:57:31;42.80;;;24.85;;
25988;SDS011;13778;48.236;9.894;2022-12-20T10:00:26;40.55;;;24.23;;
25988;SDS011;13778;48.236;9.894;2022-12-20T10:03:19;43.83;;;26.45;;
25988;SDS011;13778;48.236;9.894;2022-12-20T10:06:12;45.40;;;27.35;;
25988;SDS011;13778;48.236;9.894;2022-12-20T10:09:09;43.38;;;25.65;;
25988;SDS011;13778;48.236;9.894;2022-12-20T10:12:03;43.88;;;25.33;;
25988;SDS011;13778;48.236;9.894;2022-12-20T10:15:03;44.70;;;24.67;;
25988;SDS011;13778;48.236;9.894;2022-12-20T10:18:03;40.92;;;23.60;;
25988;SDS011;13778;48.236;9.894;2022-12-20T10:20:59;43.20;;;25.48;;
25988;SDS011;13778;48.236;9.894;2022-12-20T10:23:54;45.08;;;26.25;;
25988;SDS011;13778;48.236;9.894;2022-12-20T10:26:47;41.35;;;26.02;;
25988;SDS011;13778;48.236;9.894;2022-12-20T10:29:38;43.35;;;26.00;;
25988;SDS011;13778;48.236;9.894;2022-12-20T10:32:30;49.55;;;27.83;;
25988;SDS011;13778;48.236;9.894;2022-12-20T10:35:22;47.92;;;28.27;;
25988;SDS011;13778;48.236;9.894;2022-12-20T10:38:13;48.72;;;27.83;;
25988;SDS011;13778;48.236;9.894;2022-12-20T10:41:10;40.45;;;25.38;;
25988;SDS011;13778;48.236;9.894;2022-12-20T10:44:05;42.90;;;26.10;;
25988;SDS011;13778;48.236;9.894;2022-12-20T10:47:19;42.97;;;25.48;;
25988;SDS011;13778;48.236;9.894;2022-12-20T10:53:18;43.42;;;25.23;;
25988;SDS011;13778;48.236;9.894;2022-12-20T10:56:12;41.45;;;24.67;;
25988;SDS011;13778;48.236;9.894;2022-12-20T10:59:22;44.55;;;26.08;;
25988;SDS011;13778;48.236;9.894;2022-12-20T11:02:22;42.47;;;24.05;;
25988;SDS011;13778;48.236;9.894;2022-12-20T11:05:20;40.58;;;22.33;;
25988;SDS011;13778;48.236;9.894;2022-12-20T11:08:12;39.40;;;22.20;;
25988;SDS011;13778;48.236;9.894;2022-12-20T11:11:13;43.47;;;22.52;;
25988;SDS011;13778;48.236;9.894;2022-12-20T11:14:12;37.63;;;22.63;;
25988;SDS011;13778;48.236;9.894;2022-12-20T11:17:04;37.58;;;21.98;;
25988;SDS011;13778;48.236;9.894;2022-12-20T11:20:15;43.45;;;22.30;;
25988;SDS011;13778;48.236;9.894;2022-12-20T11:23:13;38.28;;;23.30;;
25988;SDS011;13778;48.236;9.894;2022-12-20T11:26:15;41.35;;;22.77;;
25988;SDS011;13778;48.236;9.894;2022-12-20T11:29:14;42.30;;;21.45;;
25988;SDS011;13778;48.236;9.894;2022-12-20T11:32:07;33.72;;;20.67;;
25988;SDS011;13778;48.236;9.894;2022-12-20T11:35:04;41.30;;;20.08;;
25988;SDS011;13778;48.236;9.894;2022-12-20T11:38:01;36.78;;;21.90;;
25988;SDS011;13778;48.236;9.894;2022-12-20T11:40:58;35.15;;;21.30;;
25988;SDS011;13778;48.236;9.894;2022-12-20T11:44:00;46.90;;;21.33;;
25988;SDS011;13778;48.236;9.894;2022-12-20T11:47:02;40.33;;;20.38;;
25988;SDS011;13778;48.236;9.894;2022-12-20T11:50:00;39.15;;;19.50;;
25988;SDS011;13778;48.236;9.894;2022-12-20T11:52:53;51.40;;;21.42;;
25988;SDS011;13778;48.236;9.894;2022-12-20T11:55:47;39.95;;;21.13;;
25988;SDS011;13778;48.236;9.894;2022-12-20T11:58:43;39.33;;;19.98;;
25988;SDS011;13778;48.236;9.894;2022-12-20T12:01:36;40.50;;;21.40;;
25988;SDS011;13778;48.236;9.894;2022-12-20T12:04:29;35.05;;;21.40;;
25988;SDS011;13778;48.236;9.894;2022-12-20T12:07:20;43.70;;;21.25;;
25988;SDS011;13778;48.236;9.894;2022-12-20T12:10:13;37.05;;;20.55;;
25988;SDS011;13778;48.236;9.894;2022-12-20T12:13:05;38.75;;;21.20;;
25988;SDS011;13778;48.236;9.894;2022-12-20T12:16:00;38.25;;;20.25;;
25988;SDS011;13778;48.236;9.894;2022-12-20T12:18:54;32.47;;;19.88;;
25988;SDS011;13778;48.236;9.894;2022-12-20T12:24:34;39.45;;;21.15;;
25988;SDS011;13778;48.236;9.894;2022-12-20T12:27:27;37.83;;;20.85;;
25988;SDS011;13778;48.236;9.894;2022-12-20T12:30:17;37.58;;;24.33;;
25988;SDS011;13778;48.236;9.894;2022-12-20T12:33:09;37.15;;;22.83;;
25988;SDS011;13778;48.236;9.894;2022-12-20T12:36:15;36.22;;;21.45;;
25988;SDS011;13778;48.236;9.894;2022-12-20T12:39:12;37.53;;;22.35;;
25988;SDS011;13778;48.236;9.894;2022-12-20T12:42:15;45.25;;;21.70;;
25988;SDS011;13778;48.236;9.894;2022-12-20T12:45:13;39.17;;;22.48;;
25988;SDS011;13778;48.236;9.894;2022-12-20T12:48:06;36.97;;;21.88;;
25988;SDS011;13778;48.236;9.894;2022-12-20T12:50:57;30.73;;;19.35;;
25988;SDS011;13778;48.236;9.894;2022-12-20T12:53:52;29.38;;;19.55;;
25988;SDS011;13778;48.236;9.894;2022-12-20T12:56:43;32.22;;;19.35;;
25988;SDS011;13778;48.236;9.894;2022-12-20T13:02:49;33.72;;;19.30;;
25988;SDS011;13778;48.236;9.894;2022-12-20T13:05:39;33.55;;;21.77;;
25988;SDS011;13778;48.236;9.894;2022-12-20T13:08:45;50.80;;;33.90;;
25988;SDS011;13778;48.236;9.894;2022-12-20T13:11:38;37.50;;;24.48;;
25988;SDS011;13778;48.236;9.894;2022-12-20T13:14:47;34.38;;;20.95;;
25988;SDS011;13778;48.236;9.894;2022-12-20T13:17:45;33.28;;;20.52;;
25988;SDS011;13778;48.236;9.894;2022-12-20T13:20:37;33.20;;;19.52;;
25988;SDS011;13778;48.236;9.894;2022-12-20T13:23:27;33.00;;;21.05;;
25988;SDS011;13778;48.236;9.894;2022-12-20T13:26:42;42.20;;;21.90;;
25988;SDS011;13778;48.236;9.894;2022-12-20T13:29:42;34.47;;;20.35;;
25988;SDS011;13778;48.236;9.894;2022-12-20T13:32:53;63.60;;;33.47;;
25988;SDS011;13778;48.236;9.894;2022-12-20T13:35:54;54.63;;;30.27;;
25988;SDS011;13778;48.236;9.894;2022-12-20T13:38:50;51.00;;;28.30;;
25988;SDS011;13778;48.236;9.894;2022-12-20T13:41:44;58.33;;;32.40;;
25988;SDS011;13778;48.236;9.894;2022-12-20T13:44:40;52.28;;;30.90;;
25988;SDS011;13778;48.236;9.894;2022-12-20T13:47:33;48.03;;;27.60;;
25988;SDS011;13778;48.236;9.894;2022-12-20T13:50:30;45.35;;;28.13;;
25988;SDS011;13778;48.236;9.894;2022-12-20T13:53:21;39.90;;;26.63;;
25988;SDS011;13778;48.236;9.894;2022-12-20T13:59:20;38.28;;;23.58;;
25988;SDS011;13778;48.236;9.894;2022-12-20T14:02:16;35.40;;;23.02;;
25988;SDS011;13778;48.236;9.894;2022-12-20T14:05:12;93.95;;;47.10;;
25988;SDS011;13778;48.236;9.894;2022-12-20T14:08:04;37.67;;;23.30;;
25988;SDS011;13778;48.236;9.894;2022-12-20T14:11:05;41.47;;;23.92;;
25988;SDS011;13778;48.236;9.894;2022-12-20T14:13:56;37.22;;;21.30;;
25988;SDS011;13778;48.236;9.894;2022-12-20T14:16:48;31.25;;;18.52;;
25988;SDS011;13778;48.236;9.894;2022-12-20T14:22:29;35.30;;;18.42;;
25988;SDS011;13778;48.236;9.894;2022-12-20T14:25:22;31.33;;;19.05;;
25988;SDS011;13778;48.236;9.894;2022-12-20T14:28:29;29.50;;;18.67;;
25988;SDS011;13778;48.236;9.894;2022-12-20T14:31:24;33.13;;;20.30;;
25988;SDS011;13778;48.236;9.894;2022-12-20T14:34:17;31.88;;;18.55;;
25988;SDS011;13778;48.236;9.894;2022-12-20T14:37:17;45.60;;;23.52;;
25988;SDS011;13778;48.236;9.894;2022-12-20T14:40:14;36.30;;;20.85;;
25988;SDS011;13778;48.236;9.894;2022-12-20T14:43:13;31.90;;;19.90;;
25988;SDS011;13778;48.236;9.894;2022-12-20T14:46:14;31.25;;;19.55;;
25988;SDS011;13778;48.236;9.894;2022-12-20T14:49:14;30.73;;;18.75;;
25988;SDS011;13778;48.236;9.894;2022-12-20T14:52:11;27.65;;;16.90;;
25988;SDS011;13778;48.236;9.894;2022-12-20T14:55:05;26.00;;;17.08;;
25988;SDS011;13778;48.236;9.894;2022-12-20T14:57:56;29.38;;;19.00;;
25988;SDS011;13778;48.236;9.894;2022-12-20T15:00:53;24.48;;;16.50;;
25988;SDS011;13778;48.236;9.894;2022-12-20T15:03:47;26.70;;;14.77;;
25988;SDS011;13778;48.236;9.894;2022-12-20T15:06:38;25.05;;;14.90;;
25988;SDS011;13778;48.236;9.894;2022-12-20T15:09:31;24.83;;;17.30;;
25988;SDS011;13778;48.236;9.894;2022-12-20T15:15:12;25.38;;;16.42;;
25988;SDS011;13778;48.236;9.894;2022-12-20T15:18:06;24.92;;;16.73;;
25988;SDS011;13778;48.236;9.894;2022-12-20T15:20:59;26.92;;;16.00;;
25988;SDS011;13778;48.236;9.894;2022-12-20T15:23:51;22.80;;;15.15;;
25988;SDS011;13778;48.236;9.894;2022-12-20T15:26:43;22.08;;;14.40;;
25988;SDS011;13778;48.236;9.894;2022-12-20T15:29:34;20.42;;;13.30;;
25988;SDS011;13778;48.236;9.894;2022-12-20T15:32:25;27.13;;;14.95;;
25988;SDS011;13778;48.236;9.894;2022-12-20T15:35:17;24.63;;;14.93;;
25988;SDS011;13778;48.236;9.894;2022-12-20T15:38:09;25.67;;;15.88;;
25988;SDS011;13778;48.236;9.894;2022-12-20T15:41:03;36.92;;;20.27;;
25988;SDS011;13778;48.236;9.894;2022-12-20T15:46:45;22.98;;;13.27;;
25988;SDS011;13778;48.236;9.894;2022-12-20T15:49:36;24.67;;;13.90;;
25988;SDS011;13778;48.236;9.894;2022-12-20T15:52:27;25.55;;;13.85;;
25988;SDS011;13778;48.236;9.894;2022-12-20T15:55:17;25.25;;;14.82;;
25988;SDS011;13778;48.236;9.894;2022-12-20T15:58:08;26.77;;;15.32;;
25988;SDS011;13778;48.236;9.894;2022-12-20T16:00:59;24.23;;;16.05;;
25988;SDS011;13778;48.236;9.894;2022-12-20T16:03:52;25.52;;;16.13;;
25988;SDS011;13778;48.236;9.894;2022-12-20T16:09:32;26.98;;;14.88;;
25988;SDS011;13778;48.236;9.894;2022-12-20T16:12:24;24.63;;;15.77;;
25988;SDS011;13778;48.236;9.894;2022-12-20T16:15:17;26.23;;;15.88;;
25988;SDS011;13778;48.236;9.894;2022-12-20T16:18:09;22.40;;;16.35;;
25988;SDS011;13778;48.236;9.894;2022-12-20T16:21:00;22.85;;;15.73;;
25988;SDS011;13778;48.236;9.894;2022-12-20T16:23:51;39.05;;;25.90;;
25988;SDS011;13778;48.236;9.894;2022-12-20T16:26:42;47.78;;;28.30;;
25988;SDS011;13778;48.236;9.894;2022-12-20T16:29:32;41.08;;;25.33;;
25988;SDS011;13778;48.236;9.894;2022-12-20T16:32:23;42.30;;;25.20;;
25988;SDS011;13778;48.236;9.894;2022-12-20T16:35:16;35.00;;;23.70;;
25988;SDS011;13778;48.236;9.894;2022-12-20T16:38:12;31.92;;;21.95;;
25988;SDS011;13778;48.236;9.894;2022-12-20T16:41:08;32.63;;;22.73;;
25988;SDS011;13778;48.236;9.894;2022-12-20T16:44:00;41.00;;;27.83;;
25988;SDS011;13778;48.236;9.894;2022-12-20T16:46:50;48.03;;;30.35;;
25988;SDS011;13778;48.236;9.894;2022-12-20T16:49:41;46.08;;;28.52;;
25988;SDS011;13778;48.236;9.894;2022-12-20T16:52:31;53.35;;;31.83;;
25988;SDS011;13778;48.236;9.894;2022-12-20T16:55:26;49.53;;;31.70;;
25988;SDS011;13778;48.236;9.894;2022-12-20T16:58:16;51.75;;;31.08;;
25988;SDS011;13778;48.236;9.894;2022-12-20T17:01:07;54.72;;;29.35;;
25988;SDS011;13778;48.236;9.894;2022-12-20T17:03:58;44.92;;;27.45;;
25988;SDS011;13778;48.236;9.894;2022-12-20T17:06:49;37.90;;;24.98;;
25988;SDS011;13778;48.236;9.894;2022-12-20T17:09:40;37.88;;;23.60;;
25988;SDS011;13778;48.236;9.894;2022-12-20T17:12:31;39.40;;;22.15;;
25988;SDS011;13778;48.236;9.894;2022-12-20T17:18:12;53.35;;;28.45;;
25988;SDS011;13778;48.236;9.894;2022-12-20T17:21:03;37.72;;;23.80;;
25988;SDS011;13778;48.236;9.894;2022-12-20T17:23:54;36.50;;;22.95;;
25988;SDS011;13778;48.236;9.894;2022-12-20T17:26:45;32.80;;;20.20;;
25988;SDS011;13778;48.236;9.894;2022-12-20T17:29:36;41.45;;;23.13;;
25988;SDS011;13778;48.236;9.894;2022-12-20T17:32:27;32.90;;;21.63;;
25988;SDS011;13778;48.236;9.894;2022-12-20T17:35:21;33.50;;;21.92;;
25988;SDS011;13778;48.236;9.894;2022-12-20T17:38:12;38.75;;;21.88;;
25988;SDS011;13778;48.236;9.894;2022-12-20T17:41:03;33.33;;;21.00;;
25988;SDS011;13778;48.236;9.894;2022-12-20T17:43:54;34.90;;;20.67;;
25988;SDS011;13778;48.236;9.894;2022-12-20T17:46:46;34.63;;;21.85;;
25988;SDS011;13778;48.236;9.894;2022-12-20T17:49:37;36.70;;;20.50;;
25988;SDS011;13778;48.236;9.894;2022-12-20T17:52:27;37.85;;;21.80;;